sensor_id;sensor_type;location;lat;lon;timestamp;temperature;humidity
35680;DHT22;21803;53.586;10.040;2024-03-25T00:01:23;18.80;44.20
35680;DHT22;21803;53.586;10.040;2024-03-25T00:03:50;18.80;44.20
35680;DHT22;21803;53.586;10.040;2024-03-25T00:06:15;18.80;44.70
35680;DHT22;21803;53.586;10.040;2024-03-25T00:08:41;18.90;44.20
35680;DHT22;21803;53.586;10.040;2024-03-25T00:11:07;18.90;44.20
35680;DHT22;21803;53.586;10.040;2024-03-25T00:13:33;18.90;44.20
35680;DHT22;21803;53.586;10.040;2024-03-25T00:15:58;18.80;44.10
35680;DHT22;21803;53.586;10.040;2024-03-25T00:20:50;18.80;44.10
35680;DHT22;21803;53.586;10.040;2024-03-25T00:23:17;18.80;44.10
35680;DHT22;21803;53.586;10.040;2024-03-25T00:25:42;18.80;44.10
35680;DHT22;21803;53.586;10.040;2024-03-25T00:28:08;18.80;44.10
35680;DHT22;21803;53.586;10.040;2024-03-25T00:30:33;18.80;44.10
35680;DHT22;21803;53.586;10.040;2024-03-25T00:32:59;18.80;44.10
35680;DHT22;21803;53.586;10.040;2024-03-25T00:35:25;18.80;44.10
35680;DHT22;21803;53.586;10.040;2024-03-25T00:37:51;18.80;44.10
35680;DHT22;21803;53.586;10.040;2024-03-25T00:40:16;18.80;44.10
35680;DHT22;21803;53.586;10.040;2024-03-25T00:42:42;18.80;44.60
35680;DHT22;21803;53.586;10.040;2024-03-25T00:45:08;18.80;44.10
35680;DHT22;21803;53.586;10.040;2024-03-25T00:47:33;18.80;44.10
35680;DHT22;21803;53.586;10.040;2024-03-25T00:49:59;18.80;44.10
35680;DHT22;21803;53.586;10.040;2024-03-25T00:52:25;18.80;44.10
35680;DHT22;21803;53.586;10.040;2024-03-25T00:54:50;18.80;44.10
35680;DHT22;21803;53.586;10.040;2024-03-25T00:57:16;18.80;44.10
35680;DHT22;21803;53.586;10.040;2024-03-25T00:59:41;18.80;44.10
35680;DHT22;21803;53.586;10.040;2024-03-25T01:04:33;18.80;44.20
35680;DHT22;21803;53.586;10.040;2024-03-25T01:06:59;18.80;44.20
35680;DHT22;21803;53.586;10.040;2024-03-25T01:09:25;18.80;44.20
35680;DHT22;21803;53.586;10.040;2024-03-25T01:11:51;18.80;44.10
35680;DHT22;21803;53.586;10.040;2024-03-25T01:14:16;18.80;44.20
35680;DHT22;21803;53.586;10.040;2024-03-25T01:16:42;18.80;44.10
35680;DHT22;21803;53.586;10.040;2024-03-25T01:19:08;18.80;44.10
35680;DHT22;21803;53.586;10.040;2024-03-25T01:21:34;18.80;44.70
35680;DHT22;21803;53.586;10.040;2024-03-25T01:24:00;18.80;44.20
35680;DHT22;21803;53.586;10.040;2024-03-25T01:26:25;18.80;44.10
35680;DHT22;21803;53.586;10.040;2024-03-25T01:28:52;18.80;44.20
35680;DHT22;21803;53.586;10.040;2024-03-25T01:31:19;18.80;44.20
35680;DHT22;21803;53.586;10.040;2024-03-25T01:33:45;18.80;44.20
35680;DHT22;21803;53.586;10.040;2024-03-25T01:36:10;18.80;44.20
35680;DHT22;21803;53.586;10.040;2024-03-25T01:38:41;18.80;44.20
35680;DHT22;21803;53.586;10.040;2024-03-25T01:41:08;18.80;44.20
35680;DHT22;21803;53.586;10.040;2024-03-25T01:43:34;18.80;44.20
35680;DHT22;21803;53.586;10.040;2024-03-25T01:46:00;18.80;44.20
35680;DHT22;21803;53.586;10.040;2024-03-25T01:48:26;18.80;44.20
35680;DHT22;21803;53.586;10.040;2024-03-25T01:50:52;18.80;44.20
35680;DHT22;21803;53.586;10.040;2024-03-25T01:53:18;18.80;44.20
35680;DHT22;21803;53.586;10.040;2024-03-25T01:55:44;18.80;44.20
35680;DHT22;21803;53.586;10.040;2024-03-25T01:58:11;18.80;44.20
35680;DHT22;21803;53.586;10.040;2024-03-25T02:00:36;18.80;44.20
35680;DHT22;21803;53.586;10.040;2024-03-25T02:03:03;18.80;44.20
35680;DHT22;21803;53.586;10.040;2024-03-25T02:05:28;18.80;44.20
35680;DHT22;21803;53.586;10.040;2024-03-25T02:07:55;18.80;44.30
35680;DHT22;21803;53.586;10.040;2024-03-25T02:10:21;18.80;44.30
35680;DHT22;21803;53.586;10.040;2024-03-25T02:12:47;18.80;44.20
35680;DHT22;21803;53.586;10.040;2024-03-25T02:15:14;18.80;44.30
35680;DHT22;21803;53.586;10.040;2024-03-25T02:17:39;18.80;44.30
35680;DHT22;21803;53.586;10.040;2024-03-25T02:20:06;18.80;44.30
35680;DHT22;21803;53.586;10.040;2024-03-25T02:22:34;18.80;44.30
35680;DHT22;21803;53.586;10.040;2024-03-25T02:25:07;18.80;44.30
35680;DHT22;21803;53.586;10.040;2024-03-25T02:27:39;18.80;44.80
35680;DHT22;21803;53.586;10.040;2024-03-25T02:30:09;18.80;44.30
35680;DHT22;21803;53.586;10.040;2024-03-25T02:32:37;18.80;44.30
35680;DHT22;21803;53.586;10.040;2024-03-25T02:35:06;18.80;44.30
35680;DHT22;21803;53.586;10.040;2024-03-25T02:37:32;18.80;44.30
35680;DHT22;21803;53.586;10.040;2024-03-25T02:39:59;18.80;44.30
35680;DHT22;21803;53.586;10.040;2024-03-25T02:44:53;18.60;44.20
35680;DHT22;21803;53.586;10.040;2024-03-25T02:47:19;18.80;44.30
35680;DHT22;21803;53.586;10.040;2024-03-25T02:49:45;18.80;44.30
35680;DHT22;21803;53.586;10.040;2024-03-25T02:52:11;18.80;44.30
35680;DHT22;21803;53.586;10.040;2024-03-25T02:54:36;18.80;44.30
35680;DHT22;21803;53.586;10.040;2024-03-25T02:57:02;18.80;44.30
35680;DHT22;21803;53.586;10.040;2024-03-25T02:59:28;18.80;44.30
35680;DHT22;21803;53.586;10.040;2024-03-25T03:01:53;18.70;44.80
35680;DHT22;21803;53.586;10.040;2024-03-25T03:04:19;18.80;44.20
35680;DHT22;21803;53.586;10.040;2024-03-25T03:06:44;18.80;44.30
35680;DHT22;21803;53.586;10.040;2024-03-25T03:09:10;18.80;44.30
35680;DHT22;21803;53.586;10.040;2024-03-25T03:11:35;18.80;44.30
35680;DHT22;21803;53.586;10.040;2024-03-25T03:14:01;18.80;44.30
35680;DHT22;21803;53.586;10.040;2024-03-25T03:16:27;18.80;44.30
35680;DHT22;21803;53.586;10.040;2024-03-25T03:18:52;18.80;44.20
35680;DHT22;21803;53.586;10.040;2024-03-25T03:23:44;18.80;44.30
35680;DHT22;21803;53.586;10.040;2024-03-25T03:26:09;18.80;44.30
35680;DHT22;21803;53.586;10.040;2024-03-25T03:28:35;18.80;44.30
35680;DHT22;21803;53.586;10.040;2024-03-25T03:31:00;18.80;44.30
35680;DHT22;21803;53.586;10.040;2024-03-25T03:33:26;18.80;44.30
35680;DHT22;21803;53.586;10.040;2024-03-25T03:35:51;18.80;44.30
35680;DHT22;21803;53.586;10.040;2024-03-25T03:38:17;18.80;44.30
35680;DHT22;21803;53.586;10.040;2024-03-25T03:40:55;18.80;44.30
35680;DHT22;21803;53.586;10.040;2024-03-25T03:43:21;18.80;44.30
35680;DHT22;21803;53.586;10.040;2024-03-25T03:45:46;18.80;44.30
35680;DHT22;21803;53.586;10.040;2024-03-25T03:48:12;18.80;44.30
35680;DHT22;21803;53.586;10.040;2024-03-25T03:50:37;18.80;44.30
35680;DHT22;21803;53.586;10.040;2024-03-25T03:53:03;18.80;44.30
35680;DHT22;21803;53.586;10.040;2024-03-25T03:55:29;18.80;44.30
35680;DHT22;21803;53.586;10.040;2024-03-25T03:57:55;18.80;44.30
35680;DHT22;21803;53.586;10.040;2024-03-25T04:00:20;18.80;44.30
35680;DHT22;21803;53.586;10.040;2024-03-25T04:02:46;18.80;44.30
35680;DHT22;21803;53.586;10.040;2024-03-25T04:05:11;18.80;44.30
35680;DHT22;21803;53.586;10.040;2024-03-25T04:07:37;18.80;44.80
35680;DHT22;21803;53.586;10.040;2024-03-25T04:10:04;18.80;44.30
35680;DHT22;21803;53.586;10.040;2024-03-25T04:12:30;18.80;44.30
35680;DHT22;21803;53.586;10.040;2024-03-25T04:14:55;18.80;44.30
35680;DHT22;21803;53.586;10.040;2024-03-25T04:17:22;18.80;44.30
35680;DHT22;21803;53.586;10.040;2024-03-25T04:19:49;18.80;44.30
35680;DHT22;21803;53.586;10.040;2024-03-25T04:22:14;18.80;44.30
35680;DHT22;21803;53.586;10.040;2024-03-25T04:24:40;18.80;44.30
35680;DHT22;21803;53.586;10.040;2024-03-25T04:27:06;18.70;44.80
35680;DHT22;21803;53.586;10.040;2024-03-25T04:29:31;18.70;44.20
35680;DHT22;21803;53.586;10.040;2024-03-25T04:31:57;18.70;44.20
35680;DHT22;21803;53.586;10.040;2024-03-25T04:34:22;18.80;44.30
35680;DHT22;21803;53.586;10.040;2024-03-25T04:36:49;18.80;44.30
35680;DHT22;21803;53.586;10.040;2024-03-25T04:39:14;18.80;44.30
35680;DHT22;21803;53.586;10.040;2024-03-25T04:41:40;18.70;44.20
35680;DHT22;21803;53.586;10.040;2024-03-25T04:44:06;18.70;44.20
35680;DHT22;21803;53.586;10.040;2024-03-25T04:46:31;18.80;44.30
35680;DHT22;21803;53.586;10.040;2024-03-25T04:48:57;18.70;44.20
35680;DHT22;21803;53.586;10.040;2024-03-25T04:51:22;18.80;44.30
35680;DHT22;21803;53.586;10.040;2024-03-25T04:53:48;18.80;44.30
35680;DHT22;21803;53.586;10.040;2024-03-25T04:56:14;18.70;44.20
35680;DHT22;21803;53.586;10.040;2024-03-25T04:58:39;18.80;44.30
35680;DHT22;21803;53.586;10.040;2024-03-25T05:01:05;18.70;44.20
35680;DHT22;21803;53.586;10.040;2024-03-25T05:03:30;18.70;44.20
35680;DHT22;21803;53.586;10.040;2024-03-25T05:05:56;18.70;44.20
35680;DHT22;21803;53.586;10.040;2024-03-25T05:10:48;18.70;44.20
35680;DHT22;21803;53.586;10.040;2024-03-25T05:13:13;18.80;44.20
35680;DHT22;21803;53.586;10.040;2024-03-25T05:18:05;18.70;44.10
35680;DHT22;21803;53.586;10.040;2024-03-25T05:20:30;18.80;44.20
35680;DHT22;21803;53.586;10.040;2024-03-25T05:25:22;18.70;44.20
35680;DHT22;21803;53.586;10.040;2024-03-25T05:27:54;18.70;44.70
35680;DHT22;21803;53.586;10.040;2024-03-25T05:30:19;18.70;44.20
35680;DHT22;21803;53.586;10.040;2024-03-25T05:32:45;18.70;44.10
35680;DHT22;21803;53.586;10.040;2024-03-25T05:35:10;18.70;44.20
35680;DHT22;21803;53.586;10.040;2024-03-25T05:37:36;18.70;44.10
35680;DHT22;21803;53.586;10.040;2024-03-25T05:40:02;18.70;44.20
35680;DHT22;21803;53.586;10.040;2024-03-25T05:42:28;18.70;44.10
35680;DHT22;21803;53.586;10.040;2024-03-25T05:49:47;18.70;44.10
35680;DHT22;21803;53.586;10.040;2024-03-25T05:52:12;18.70;44.10
35680;DHT22;21803;53.586;10.040;2024-03-25T05:54:38;18.70;44.10
35680;DHT22;21803;53.586;10.040;2024-03-25T05:59:29;18.70;44.10
35680;DHT22;21803;53.586;10.040;2024-03-25T06:01:55;18.80;44.20
35680;DHT22;21803;53.586;10.040;2024-03-25T06:04:20;18.70;44.10
35680;DHT22;21803;53.586;10.040;2024-03-25T06:06:46;18.70;44.10
35680;DHT22;21803;53.586;10.040;2024-03-25T06:09:12;18.70;44.10
35680;DHT22;21803;53.586;10.040;2024-03-25T06:11:37;18.70;44.10
35680;DHT22;21803;53.586;10.040;2024-03-25T06:14:03;18.70;44.10
35680;DHT22;21803;53.586;10.040;2024-03-25T06:16:28;18.70;44.10
35680;DHT22;21803;53.586;10.040;2024-03-25T06:18:54;18.80;44.10
35680;DHT22;21803;53.586;10.040;2024-03-25T06:21:19;18.70;44.10
35680;DHT22;21803;53.586;10.040;2024-03-25T06:23:45;18.70;44.10
35680;DHT22;21803;53.586;10.040;2024-03-25T06:28:36;18.70;44.10
35680;DHT22;21803;53.586;10.040;2024-03-25T06:31:02;18.70;44.10
35680;DHT22;21803;53.586;10.040;2024-03-25T06:33:46;18.70;44.10
35680;DHT22;21803;53.586;10.040;2024-03-25T06:36:30;18.70;44.10
35680;DHT22;21803;53.586;10.040;2024-03-25T06:38:59;18.70;44.00
35680;DHT22;21803;53.586;10.040;2024-03-25T06:41:25;18.70;44.10
35680;DHT22;21803;53.586;10.040;2024-03-25T06:43:50;18.80;44.10
35680;DHT22;21803;53.586;10.040;2024-03-25T06:46:16;18.80;44.10
35680;DHT22;21803;53.586;10.040;2024-03-25T06:48:41;18.70;44.10
35680;DHT22;21803;53.586;10.040;2024-03-25T06:51:07;18.70;44.00
35680;DHT22;21803;53.586;10.040;2024-03-25T06:53:32;18.80;44.10
35680;DHT22;21803;53.586;10.040;2024-03-25T06:55:59;18.70;44.00
35680;DHT22;21803;53.586;10.040;2024-03-25T06:58:26;18.70;44.00
35680;DHT22;21803;53.586;10.040;2024-03-25T07:00:54;18.80;44.10
35680;DHT22;21803;53.586;10.040;2024-03-25T07:03:21;18.70;44.00
35680;DHT22;21803;53.586;10.040;2024-03-25T07:05:48;18.70;44.00
35680;DHT22;21803;53.586;10.040;2024-03-25T07:08:14;18.80;44.10
35680;DHT22;21803;53.586;10.040;2024-03-25T07:10:42;18.60;44.00
35680;DHT22;21803;53.586;10.040;2024-03-25T07:13:08;18.80;44.10
35680;DHT22;21803;53.586;10.040;2024-03-25T07:15:34;18.80;44.10
35680;DHT22;21803;53.586;10.040;2024-03-25T07:18:00;18.80;44.00
35680;DHT22;21803;53.586;10.040;2024-03-25T07:20:26;18.80;44.10
35680;DHT22;21803;53.586;10.040;2024-03-25T07:22:55;18.70;44.00
35680;DHT22;21803;53.586;10.040;2024-03-25T07:25:24;18.70;44.00
35680;DHT22;21803;53.586;10.040;2024-03-25T07:27:50;18.70;44.00
35680;DHT22;21803;53.586;10.040;2024-03-25T07:30:16;18.70;44.00
35680;DHT22;21803;53.586;10.040;2024-03-25T07:32:42;18.80;44.00
35680;DHT22;21803;53.586;10.040;2024-03-25T07:35:10;18.70;44.00
35680;DHT22;21803;53.586;10.040;2024-03-25T07:37:36;18.70;44.00
35680;DHT22;21803;53.586;10.040;2024-03-25T07:40:02;18.80;44.00
35680;DHT22;21803;53.586;10.040;2024-03-25T07:42:29;18.80;44.00
35680;DHT22;21803;53.586;10.040;2024-03-25T07:44:55;18.80;44.10
35680;DHT22;21803;53.586;10.040;2024-03-25T07:47:21;18.80;44.10
35680;DHT22;21803;53.586;10.040;2024-03-25T07:49:47;18.80;44.00
35680;DHT22;21803;53.586;10.040;2024-03-25T07:52:12;18.80;44.00
35680;DHT22;21803;53.586;10.040;2024-03-25T07:54:39;18.80;44.00
35680;DHT22;21803;53.586;10.040;2024-03-25T07:57:04;18.80;44.00
35680;DHT22;21803;53.586;10.040;2024-03-25T08:01:56;18.80;44.00
35680;DHT22;21803;53.586;10.040;2024-03-25T08:04:22;18.80;44.00
35680;DHT22;21803;53.586;10.040;2024-03-25T08:06:48;18.80;43.90
35680;DHT22;21803;53.586;10.040;2024-03-25T08:09:13;18.80;44.00
35680;DHT22;21803;53.586;10.040;2024-03-25T08:11:41;18.80;44.00
35680;DHT22;21803;53.586;10.040;2024-03-25T08:14:09;18.80;43.90
35680;DHT22;21803;53.586;10.040;2024-03-25T08:16:34;18.80;44.00
35680;DHT22;21803;53.586;10.040;2024-03-25T08:19:00;18.70;43.90
35680;DHT22;21803;53.586;10.040;2024-03-25T08:21:26;18.80;44.00
35680;DHT22;21803;53.586;10.040;2024-03-25T08:23:51;18.80;44.00
35680;DHT22;21803;53.586;10.040;2024-03-25T08:26:17;18.80;44.00
35680;DHT22;21803;53.586;10.040;2024-03-25T08:28:42;18.80;44.00
35680;DHT22;21803;53.586;10.040;2024-03-25T08:31:08;18.80;44.00
35680;DHT22;21803;53.586;10.040;2024-03-25T08:33:34;18.70;43.90
35680;DHT22;21803;53.586;10.040;2024-03-25T08:35:59;18.80;44.00
35680;DHT22;21803;53.586;10.040;2024-03-25T08:38:25;18.80;44.00
35680;DHT22;21803;53.586;10.040;2024-03-25T08:40:51;18.80;44.00
35680;DHT22;21803;53.586;10.040;2024-03-25T08:43:16;18.80;44.00
35680;DHT22;21803;53.586;10.040;2024-03-25T08:45:43;18.80;44.00
35680;DHT22;21803;53.586;10.040;2024-03-25T08:48:08;18.80;44.00
35680;DHT22;21803;53.586;10.040;2024-03-25T08:50:34;18.80;44.00
35680;DHT22;21803;53.586;10.040;2024-03-25T08:52:59;18.80;44.00
35680;DHT22;21803;53.586;10.040;2024-03-25T08:55:26;18.80;44.00
35680;DHT22;21803;53.586;10.040;2024-03-25T08:57:52;18.80;44.00
35680;DHT22;21803;53.586;10.040;2024-03-25T09:00:18;18.80;44.00
35680;DHT22;21803;53.586;10.040;2024-03-25T09:02:43;18.80;43.90
35680;DHT22;21803;53.586;10.040;2024-03-25T09:05:09;18.90;44.00
35680;DHT22;21803;53.586;10.040;2024-03-25T09:07:36;18.80;43.90
35680;DHT22;21803;53.586;10.040;2024-03-25T09:10:02;18.80;43.90
35680;DHT22;21803;53.586;10.040;2024-03-25T09:12:46;18.90;44.00
35680;DHT22;21803;53.586;10.040;2024-03-25T09:15:11;18.70;43.90
35680;DHT22;21803;53.586;10.040;2024-03-25T09:17:37;18.80;43.90
35680;DHT22;21803;53.586;10.040;2024-03-25T09:20:03;18.90;44.00
35680;DHT22;21803;53.586;10.040;2024-03-25T09:22:49;18.90;44.00
35680;DHT22;21803;53.586;10.040;2024-03-25T09:25:18;18.90;44.50
35680;DHT22;21803;53.586;10.040;2024-03-25T09:27:48;18.90;43.90
35680;DHT22;21803;53.586;10.040;2024-03-25T09:30:14;18.90;43.90
35680;DHT22;21803;53.586;10.040;2024-03-25T09:32:40;18.90;43.80
35680;DHT22;21803;53.586;10.040;2024-03-25T09:35:07;18.90;43.80
35680;DHT22;21803;53.586;10.040;2024-03-25T09:37:32;18.90;43.80
35680;DHT22;21803;53.586;10.040;2024-03-25T09:39:58;18.90;43.80
35680;DHT22;21803;53.586;10.040;2024-03-25T09:42:33;18.90;43.80
35680;DHT22;21803;53.586;10.040;2024-03-25T09:44:59;18.90;43.80
35680;DHT22;21803;53.586;10.040;2024-03-25T09:47:25;18.90;43.70
35680;DHT22;21803;53.586;10.040;2024-03-25T09:49:54;18.90;43.70
35680;DHT22;21803;53.586;10.040;2024-03-25T09:52:20;18.90;43.70
35680;DHT22;21803;53.586;10.040;2024-03-25T09:54:45;18.90;43.70
35680;DHT22;21803;53.586;10.040;2024-03-25T09:57:12;18.90;44.20
35680;DHT22;21803;53.586;10.040;2024-03-25T09:59:37;18.90;43.70
35680;DHT22;21803;53.586;10.040;2024-03-25T10:04:29;18.90;43.70
35680;DHT22;21803;53.586;10.040;2024-03-25T10:06:55;18.90;43.70
35680;DHT22;21803;53.586;10.040;2024-03-25T10:09:21;18.90;43.70
35680;DHT22;21803;53.586;10.040;2024-03-25T10:11:51;18.90;43.70
35680;DHT22;21803;53.586;10.040;2024-03-25T10:14:16;18.90;43.60
35680;DHT22;21803;53.586;10.040;2024-03-25T10:16:43;18.90;43.60
35680;DHT22;21803;53.586;10.040;2024-03-25T10:19:09;18.90;43.60
35680;DHT22;21803;53.586;10.040;2024-03-25T10:21:35;18.90;43.60
35680;DHT22;21803;53.586;10.040;2024-03-25T10:24:01;18.80;43.60
35680;DHT22;21803;53.586;10.040;2024-03-25T10:26:31;18.90;43.60
35680;DHT22;21803;53.586;10.040;2024-03-25T10:31:30;18.90;43.60
35680;DHT22;21803;53.586;10.040;2024-03-25T10:36:22;18.90;43.60
35680;DHT22;21803;53.586;10.040;2024-03-25T10:38:53;18.90;43.50
35680;DHT22;21803;53.586;10.040;2024-03-25T10:41:20;18.90;43.50
35680;DHT22;21803;53.586;10.040;2024-03-25T10:43:47;18.90;43.50
35680;DHT22;21803;53.586;10.040;2024-03-25T10:46:17;19.00;43.60
35680;DHT22;21803;53.586;10.040;2024-03-25T10:51:17;18.90;43.50
35680;DHT22;21803;53.586;10.040;2024-03-25T10:53:46;19.00;43.50
35680;DHT22;21803;53.586;10.040;2024-03-25T10:56:12;18.90;43.50
35680;DHT22;21803;53.586;10.040;2024-03-25T10:58:39;19.00;43.50
35680;DHT22;21803;53.586;10.040;2024-03-25T11:01:06;18.90;43.50
35680;DHT22;21803;53.586;10.040;2024-03-25T11:03:33;18.90;43.50
35680;DHT22;21803;53.586;10.040;2024-03-25T11:05:59;19.00;43.50
35680;DHT22;21803;53.586;10.040;2024-03-25T11:08:31;19.00;43.50
35680;DHT22;21803;53.586;10.040;2024-03-25T11:10:57;18.90;43.50
35680;DHT22;21803;53.586;10.040;2024-03-25T11:13:22;19.00;43.50
35680;DHT22;21803;53.586;10.040;2024-03-25T11:15:49;18.90;43.40
35680;DHT22;21803;53.586;10.040;2024-03-25T11:18:16;19.00;43.50
35680;DHT22;21803;53.586;10.040;2024-03-25T11:20:42;18.90;43.40
35680;DHT22;21803;53.586;10.040;2024-03-25T11:23:12;18.90;43.40
35680;DHT22;21803;53.586;10.040;2024-03-25T11:25:38;18.90;43.40
35680;DHT22;21803;53.586;10.040;2024-03-25T11:28:04;18.90;43.40
35680;DHT22;21803;53.586;10.040;2024-03-25T11:30:31;19.00;43.50
35680;DHT22;21803;53.586;10.040;2024-03-25T11:32:58;18.90;43.40
35680;DHT22;21803;53.586;10.040;2024-03-25T11:35:24;18.90;43.40
35680;DHT22;21803;53.586;10.040;2024-03-25T11:37:50;19.00;43.40
35680;DHT22;21803;53.586;10.040;2024-03-25T11:42:44;18.90;43.30
35680;DHT22;21803;53.586;10.040;2024-03-25T11:45:20;18.90;43.40
35680;DHT22;21803;53.586;10.040;2024-03-25T11:47:47;18.90;43.30
35680;DHT22;21803;53.586;10.040;2024-03-25T11:50:15;19.00;43.40
35680;DHT22;21803;53.586;10.040;2024-03-25T11:52:41;19.00;43.40
35680;DHT22;21803;53.586;10.040;2024-03-25T11:55:07;18.90;43.30
35680;DHT22;21803;53.586;10.040;2024-03-25T11:57:37;18.90;43.30
35680;DHT22;21803;53.586;10.040;2024-03-25T12:00:04;18.90;43.30
35680;DHT22;21803;53.586;10.040;2024-03-25T12:02:36;19.00;43.30
35680;DHT22;21803;53.586;10.040;2024-03-25T12:05:02;19.00;43.30
35680;DHT22;21803;53.586;10.040;2024-03-25T12:07:27;19.00;43.20
35680;DHT22;21803;53.586;10.040;2024-03-25T12:09:53;18.90;43.20
35680;DHT22;21803;53.586;10.040;2024-03-25T12:12:37;19.00;43.20
35680;DHT22;21803;53.586;10.040;2024-03-25T12:15:05;18.90;43.20
35680;DHT22;21803;53.586;10.040;2024-03-25T12:17:33;18.90;43.20
35680;DHT22;21803;53.586;10.040;2024-03-25T12:20:04;18.90;43.20
35680;DHT22;21803;53.586;10.040;2024-03-25T12:22:32;18.90;43.10
35680;DHT22;21803;53.586;10.040;2024-03-25T12:25:00;18.90;43.20
35680;DHT22;21803;53.586;10.040;2024-03-25T12:27:27;18.90;43.10
35680;DHT22;21803;53.586;10.040;2024-03-25T12:29:58;19.00;43.20
35680;DHT22;21803;53.586;10.040;2024-03-25T12:32:51;19.00;43.20
35680;DHT22;21803;53.586;10.040;2024-03-25T12:35:18;18.90;43.10
35680;DHT22;21803;53.586;10.040;2024-03-25T12:37:45;19.00;43.20
35680;DHT22;21803;53.586;10.040;2024-03-25T12:40:12;19.00;43.20
35680;DHT22;21803;53.586;10.040;2024-03-25T12:42:38;18.90;43.10
35680;DHT22;21803;53.586;10.040;2024-03-25T12:45:07;18.90;43.10
35680;DHT22;21803;53.586;10.040;2024-03-25T12:47:34;18.90;43.10
35680;DHT22;21803;53.586;10.040;2024-03-25T12:50:00;19.00;43.10
35680;DHT22;21803;53.586;10.040;2024-03-25T12:52:26;19.00;43.10
35680;DHT22;21803;53.586;10.040;2024-03-25T12:54:51;18.90;43.10
35680;DHT22;21803;53.586;10.040;2024-03-25T12:57:17;18.90;43.10
35680;DHT22;21803;53.586;10.040;2024-03-25T12:59:44;19.00;43.10
35680;DHT22;21803;53.586;10.040;2024-03-25T13:02:12;18.90;43.00
35680;DHT22;21803;53.586;10.040;2024-03-25T13:04:38;19.00;43.10
35680;DHT22;21803;53.586;10.040;2024-03-25T13:07:05;18.90;43.00
35680;DHT22;21803;53.586;10.040;2024-03-25T13:09:31;19.00;43.10
35680;DHT22;21803;53.586;10.040;2024-03-25T13:11:57;18.90;43.00
35680;DHT22;21803;53.586;10.040;2024-03-25T13:16:49;18.90;43.10
35680;DHT22;21803;53.586;10.040;2024-03-25T13:19:15;19.00;43.10
35680;DHT22;21803;53.586;10.040;2024-03-25T13:21:41;18.90;43.00
35680;DHT22;21803;53.586;10.040;2024-03-25T13:24:06;19.00;43.10
35680;DHT22;21803;53.586;10.040;2024-03-25T13:26:32;19.00;43.10
35680;DHT22;21803;53.586;10.040;2024-03-25T13:28:58;18.90;43.10
35680;DHT22;21803;53.586;10.040;2024-03-25T13:31:24;19.00;43.20
35680;DHT22;21803;53.586;10.040;2024-03-25T13:33:49;18.90;43.10
35680;DHT22;21803;53.586;10.040;2024-03-25T13:36:17;18.90;43.10
35680;DHT22;21803;53.586;10.040;2024-03-25T13:41:08;18.90;43.10
35680;DHT22;21803;53.586;10.040;2024-03-25T13:43:34;19.00;43.20
35680;DHT22;21803;53.586;10.040;2024-03-25T13:46:00;18.90;43.10
35680;DHT22;21803;53.586;10.040;2024-03-25T13:50:54;18.90;43.10
35680;DHT22;21803;53.586;10.040;2024-03-25T13:53:20;18.90;43.10
35680;DHT22;21803;53.586;10.040;2024-03-25T13:55:45;18.90;43.70
35680;DHT22;21803;53.586;10.040;2024-03-25T14:03:03;19.00;43.20
35680;DHT22;21803;53.586;10.040;2024-03-25T14:05:29;18.90;43.10
35680;DHT22;21803;53.586;10.040;2024-03-25T14:07:55;18.90;43.10
35680;DHT22;21803;53.586;10.040;2024-03-25T14:10:22;18.90;43.10
35680;DHT22;21803;53.586;10.040;2024-03-25T14:12:47;19.00;43.10
35680;DHT22;21803;53.586;10.040;2024-03-25T14:15:13;18.90;43.10
35680;DHT22;21803;53.586;10.040;2024-03-25T14:17:38;18.90;43.10
35680;DHT22;21803;53.586;10.040;2024-03-25T14:20:04;18.90;43.10
35680;DHT22;21803;53.586;10.040;2024-03-25T14:22:32;18.90;43.00
35680;DHT22;21803;53.586;10.040;2024-03-25T14:24:58;18.90;43.00
35680;DHT22;21803;53.586;10.040;2024-03-25T14:27:24;18.90;43.00
35680;DHT22;21803;53.586;10.040;2024-03-25T14:29:50;19.00;43.10
35680;DHT22;21803;53.586;10.040;2024-03-25T14:32:19;18.90;43.00
35680;DHT22;21803;53.586;10.040;2024-03-25T14:34:45;19.00;43.10
35680;DHT22;21803;53.586;10.040;2024-03-25T14:37:11;19.00;43.10
35680;DHT22;21803;53.586;10.040;2024-03-25T14:39:36;19.00;43.10
35680;DHT22;21803;53.586;10.040;2024-03-25T14:42:02;18.90;43.10
35680;DHT22;21803;53.586;10.040;2024-03-25T14:44:30;18.90;43.10
35680;DHT22;21803;53.586;10.040;2024-03-25T14:46:55;18.90;43.10
35680;DHT22;21803;53.586;10.040;2024-03-25T14:49:23;18.90;43.00
35680;DHT22;21803;53.586;10.040;2024-03-25T14:51:49;18.90;43.00
35680;DHT22;21803;53.586;10.040;2024-03-25T14:54:14;19.00;43.10
35680;DHT22;21803;53.586;10.040;2024-03-25T14:56:40;18.90;43.00
35680;DHT22;21803;53.586;10.040;2024-03-25T14:59:05;19.00;43.10
35680;DHT22;21803;53.586;10.040;2024-03-25T15:01:31;19.00;43.00
35680;DHT22;21803;53.586;10.040;2024-03-25T15:04:01;19.00;43.00
35680;DHT22;21803;53.586;10.040;2024-03-25T15:06:26;19.00;43.00
35680;DHT22;21803;53.586;10.040;2024-03-25T15:08:52;19.00;42.90
35680;DHT22;21803;53.586;10.040;2024-03-25T15:11:17;19.00;42.90
35680;DHT22;21803;53.586;10.040;2024-03-25T15:13:43;19.00;42.90
35680;DHT22;21803;53.586;10.040;2024-03-25T15:16:08;18.90;42.90
35680;DHT22;21803;53.586;10.040;2024-03-25T15:18:34;19.00;42.90
35680;DHT22;21803;53.586;10.040;2024-03-25T15:21:03;19.00;42.90
35680;DHT22;21803;53.586;10.040;2024-03-25T15:23:29;19.00;42.90
35680;DHT22;21803;53.586;10.040;2024-03-25T15:25:56;18.90;42.80
35680;DHT22;21803;53.586;10.040;2024-03-25T15:28:22;18.90;42.80
35680;DHT22;21803;53.586;10.040;2024-03-25T15:30:47;19.00;42.90
35680;DHT22;21803;53.586;10.040;2024-03-25T15:33:13;18.90;42.80
35680;DHT22;21803;53.586;10.040;2024-03-25T15:38:05;18.90;42.80
35680;DHT22;21803;53.586;10.040;2024-03-25T15:40:31;18.90;42.80
35680;DHT22;21803;53.586;10.040;2024-03-25T15:42:57;18.90;42.80
35680;DHT22;21803;53.586;10.040;2024-03-25T15:45:22;18.90;42.80
35680;DHT22;21803;53.586;10.040;2024-03-25T15:47:50;18.90;42.80
35680;DHT22;21803;53.586;10.040;2024-03-25T15:50:16;18.90;42.80
35680;DHT22;21803;53.586;10.040;2024-03-25T15:52:42;19.00;42.80
35680;DHT22;21803;53.586;10.040;2024-03-25T15:55:07;19.00;42.80
35680;DHT22;21803;53.586;10.040;2024-03-25T15:57:33;18.90;42.70
35680;DHT22;21803;53.586;10.040;2024-03-25T15:59:59;19.00;42.80
35680;DHT22;21803;53.586;10.040;2024-03-25T16:02:24;18.90;42.80
35680;DHT22;21803;53.586;10.040;2024-03-25T16:04:50;18.90;42.80
35680;DHT22;21803;53.586;10.040;2024-03-25T16:07:16;18.90;42.80